Time;durP1;ratioP1;P1;durP2;ratioP2;P2;SDS_P1;SDS_P2;PMS_P1;PMS_P2;Temp;Humidity;BMP_temperature;BMP_pressure;BME280_temperature;BME280_humidity;BME280_pressure;Samples;Min_cycle;Max_cycle;Signal;HPM_P1;HPM_P2
2023/01/15 00:01:16;;;;;;;8.15;1.60;;;6.80;99.90;;;;;;6189985;22;20058;-80
2023/01/15 00:03:42;;;;;;;11.95;1.83;;;6.60;99.90;;;;;;6287128;22;20070;-79
2023/01/15 00:06:07;;;;;;;5.97;1.42;;;6.30;99.90;;;;;;6261326;22;20344;-79
2023/01/15 00:08:34;;;;;;;12.73;1.63;;;6.50;99.90;;;;;;6261633;22;20011;-80
2023/01/15 00:11:03;;;;;;;9.70;1.73;;;6.50;99.90;;;;;;6262164;22;20014;-79
2023/01/15 00:13:29;;;;;;;7.93;1.30;;;6.30;99.90;;;;;;6287396;22;20198;-79
2023/01/15 00:16:09;;;;;;;9.85;1.83;;;6.20;99.90;;;;;;6261209;22;20011;-79
2023/01/15 00:18:34;;;;;;;13.63;2.20;;;6.40;99.90;;;;;;6287041;22;20015;-79
2023/01/15 00:21:03;;;;;;;7.43;1.70;;;6.30;99.90;;;;;;6236580;22;20046;-80
2023/01/15 00:29:25;;;;;;;10.67;1.50;;;6.40;99.90;;;;;;6283884;22;20072;-81
2023/01/15 00:36:40;;;;;;;;;;;;;;;;;;;;;
2023/01/15 00:39:34;;;;;;;;;;;;;;;;;;;;;
2023/01/15 00:42:15;;;;;;;7.40;1.63;;;4.90;99.90;;;;;;6134903;23;20013;-81
2023/01/15 00:45:06;;;;;;;13.90;2.60;;;6.70;99.90;;;;;;6159573;23;20073;-80
2023/01/15 00:48:31;;;;;;;;;;;;;;;;;;;;;
2023/01/15 00:51:13;;;;;;;10.77;1.90;;;5.50;99.90;;;;;;6095686;23;20021;-79
2023/01/15 00:53:44;;;;;;;12.52;2.28;;;6.70;99.90;;;;;;6156686;23;20020;-78
2023/01/15 00:56:13;;;;;;;12.55;1.92;;;6.60;99.90;;;;;;6162798;23;20099;-80
2023/01/15 01:03:47;;;;;;;;;;;;;;;;;;;;;
2023/01/15 01:06:55;;;;;;;8.40;1.50;;;6.50;99.90;;;;;;5985914;23;20024;-80
2023/01/15 01:09:48;;;;;;;10.13;2.15;;;7.40;99.90;;;;;;6006858;23;20058;-79
2023/01/15 01:12:14;;;;;;;9.98;1.58;;;6.30;99.90;;;;;;6115678;23;20037;-79
2023/01/15 01:14:45;;;;;;;12.15;2.70;;;;;;;;;;6115861;23;20017;-79
2023/01/15 01:17:11;;;;;;;9.30;1.80;;;6.30;99.90;;;;;;6189711;22;20064;-78
2023/01/15 01:19:40;;;;;;;10.45;2.00;;;6.30;99.90;;;;;;6260087;22;20015;-79
2023/01/15 01:22:17;;;;;;;8.85;2.10;;;6.20;99.90;;;;;;6286058;22;20014;-79
2023/01/15 01:24:43;;;;;;;13.38;2.20;;;6.50;99.90;;;;;;6261159;22;20086;-79
2023/01/15 01:27:09;;;;;;;6.07;1.40;;;6.20;99.90;;;;;;6234810;22;20035;-80
2023/01/15 01:29:35;;;;;;;7.85;1.48;;;6.20;99.90;;;;;;6235054;22;20224;-80
2023/01/15 01:32:01;;;;;;;9.35;1.83;;;6.30;99.90;;;;;;6260254;22;20011;-78
2023/01/15 01:34:29;;;;;;;9.65;1.73;;;6.30;99.90;;;;;;6260704;22;20074;-79
2023/01/15 01:36:55;;;;;;;9.18;1.70;;;6.30;99.90;;;;;;6261461;22;20026;-78
2023/01/15 01:39:20;;;;;;;3.20;1.20;;;7.00;99.90;;;;;;6259586;22;20007;-79
2023/01/15 01:41:49;;;;;;;8.25;1.95;;;6.20;99.90;;;;;;6258851;22;20026;-78
2023/01/15 01:44:36;;;;;;;8.20;1.55;;;6.30;99.90;;;;;;6260342;22;20011;-78
2023/01/15 01:47:08;;;;;;;9.00;1.40;;;6.40;99.90;;;;;;6260219;22;20217;-79
2023/01/15 01:49:38;;;;;;;14.48;2.33;;;6.30;99.90;;;;;;6259673;22;20348;-78
2023/01/15 01:52:27;;;;;;;;;;;;;;;;;;;;;
2023/01/15 01:59:40;;;;;;;;;;;;;;;;;;;;;
2023/01/15 02:28:51;;;;;;;6.35;2.03;;;6.50;99.90;;;;;;5838258;24;20018;-80
2023/01/15 02:31:28;;;;;;;11.88;1.88;;;4.60;99.90;;;;;;5907641;24;20023;-78
2023/01/15 02:34:02;;;;;;;6.00;1.60;;;6.30;99.90;;;;;;6129331;23;20097;-79
2023/01/15 02:36:31;;;;;;;11.02;1.70;;;6.30;99.90;;;;;;6167363;23;20338;-79
2023/01/15 02:39:09;;;;;;;13.05;2.00;;;6.50;99.90;;;;;;6166787;23;20021;-78
2023/01/15 02:41:50;;;;;;;8.20;2.00;;;7.90;99.90;;;;;;6194060;22;20036;-79
2023/01/15 02:44:21;;;;;;;11.73;1.95;;;6.30;99.90;;;;;;6289210;22;20022;-78
2023/01/15 02:47:01;;;;;;;8.52;2.35;;;6.30;99.90;;;;;;6315402;22;20197;-79
2023/01/15 02:49:27;;;;;;;9.82;1.98;;;6.10;99.90;;;;;;6314242;22;20018;-79
2023/01/15 02:52:02;;;;;;;6.20;1.40;;;6.20;99.90;;;;;;6263755;22;20269;-78
2023/01/15 02:54:34;;;;;;;;;;;6.30;99.90;;;;;;6289436;22;20055;-79
2023/01/15 02:57:02;;;;;;;9.43;1.65;;;6.20;99.90;;;;;;6314351;22;19934;-79
2023/01/15 02:59:40;;;;;;;11.70;2.67;;;6.20;99.90;;;;;;6288909;22;20038;-78
2023/01/15 03:02:15;;;;;;;12.73;2.00;;;6.30;99.90;;;;;;6286891;22;20383;-77
2023/01/15 03:04:59;;;;;;;6.15;1.70;;;6.30;99.90;;;;;;6288360;22;20011;-78
2023/01/15 03:07:43;;;;;;;8.32;2.22;;;6.20;99.90;;;;;;6314625;22;20006;-77
2023/01/15 03:10:10;;;;;;;9.82;1.52;;;6.30;99.90;;;;;;6314642;22;20006;-78
2023/01/15 03:13:03;;;;;;;9.68;1.65;;;6.30;99.90;;;;;;6314579;22;20077;-77
2023/01/15 03:19:04;;;;;;;;;;;;;;;;;;;;;
2023/01/15 03:21:55;;;;;;;5.65;1.70;;;6.40;99.90;;;;;;6313920;22;20014;-77
2023/01/15 03:24:33;;;;;;;9.75;2.25;;;6.30;99.90;;;;;;6287288;22;20015;-78
2023/01/15 03:27:05;;;;;;;10.30;2.17;;;6.40;99.90;;;;;;6314846;22;20007;-78
2023/01/15 03:29:49;;;;;;;10.30;1.65;;;6.30;99.90;;;;;;6315002;22;20011;-77
2023/01/15 03:32:17;;;;;;;9.55;1.90;;;6.70;99.90;;;;;;6315408;22;20313;-77
2023/01/15 03:34:54;;;;;;;9.13;1.73;;;6.30;99.90;;;;;;6314417;22;20453;-77
2023/01/15 03:37:26;;;;;;;8.93;1.75;;;6.30;99.90;;;;;;6314480;22;20014;-77
2023/01/15 03:40:02;;;;;;;12.90;2.05;;;8.20;99.90;;;;;;6288258;22;20578;-77
2023/01/15 03:42:28;;;;;;;11.48;1.98;;;6.30;99.90;;;;;;6265772;22;20011;-77
2023/01/15 03:45:08;;;;;;;7.82;2.47;;;6.40;99.90;;;;;;6313965;22;20345;-77
2023/01/15 03:48:10;;;;;;;14.60;2.80;;;6.20;99.90;;;;;;6289988;22;20063;-80
2023/01/15 03:50:59;;;;;;;13.27;4.10;;;6.20;99.90;;;;;;6314648;22;20182;-77
2023/01/15 03:53:45;;;;;;;8.45;3.20;;;6.20;99.90;;;;;;6308775;22;20340;-77
2023/01/15 03:56:39;;;;;;;15.15;2.00;;;6.20;99.90;;;;;;6282387;22;20027;-78
2023/01/15 03:59:22;;;;;;;9.18;2.03;;;7.20;99.90;;;;;;6282301;22;20046;-78
2023/01/15 04:01:49;;;;;;;17.77;2.20;;;6.30;99.90;;;;;;6286325;22;20011;-77
2023/01/15 04:04:19;;;;;;;10.48;2.10;;;6.30;99.90;;;;;;6259414;22;20019;-77
2023/01/15 04:06:54;;;;;;;8.57;1.67;;;6.30;99.90;;;;;;6285348;22;20054;-77
2023/01/15 04:09:24;;;;;;;8.20;1.55;;;6.30;99.90;;;;;;6284683;22;20011;-77
2023/01/15 04:11:50;;;;;;;12.52;2.10;;;6.60;99.90;;;;;;6260652;22;20088;-77
2023/01/15 04:14:16;;;;;;;10.98;2.03;;;6.10;99.90;;;;;;6285805;22;20030;-77
2023/01/15 04:16:41;;;;;;;7.82;1.70;;;6.50;99.90;;;;;;6308796;22;20011;-77
2023/01/15 04:19:10;;;;;;;8.85;1.70;;;6.20;99.90;;;;;;6259705;22;20018;-78
2023/01/15 04:21:36;;;;;;;9.90;1.92;;;6.20;99.90;;;;;;6260032;22;20019;-77
2023/01/15 04:24:04;;;;;;;14.00;1.73;;;6.20;99.90;;;;;;6259809;22;20186;-78
2023/01/15 04:26:30;;;;;;;9.75;1.77;;;6.20;99.90;;;;;;6260537;22;20078;-77
2023/01/15 04:28:56;;;;;;;10.15;1.75;;;6.20;99.90;;;;;;6311336;22;20309;-79
2023/01/15 04:31:24;;;;;;;8.18;2.25;;;6.10;99.90;;;;;;6311605;22;20306;-79
2023/01/15 04:33:49;;;;;;;11.20;2.30;;;6.10;99.90;;;;;;6260760;22;20023;-78
2023/01/15 04:36:15;;;;;;;8.75;2.13;;;6.10;99.90;;;;;;6284697;22;20504;-79
2023/01/15 04:38:41;;;;;;;8.20;1.77;;;6.10;99.90;;;;;;6258843;22;20047;-79
2023/01/15 04:44:07;;;;;;;10.75;2.55;;;6.00;99.90;;;;;;6289895;22;20174;-79
2023/01/15 04:46:49;;;;;;;11.48;1.88;;;6.10;99.90;;;;;;6287040;22;20007;-79
2023/01/15 04:49:18;;;;;;;9.82;1.80;;;5.90;99.90;;;;;;6310228;22;20012;-79
2023/01/15 04:51:45;;;;;;;8.20;1.88;;;6.00;99.90;;;;;;6261242;22;20015;-80
2023/01/15 04:54:15;;;;;;;6.88;2.00;;;5.90;99.90;;;;;;6262086;22;20022;-81
2023/01/15 04:56:59;;;;;;;13.68;2.08;;;8.20;99.90;;;;;;6235284;22;20065;-79
2023/01/15 04:59:25;;;;;;;14.77;2.38;;;6.00;99.90;;;;;;6236118;22;20007;-80
2023/01/15 05:01:54;;;;;;;9.05;1.80;;;6.00;99.90;;;;;;6261654;22;20019;-81
2023/01/15 05:04:21;;;;;;;9.60;1.77;;;5.90;99.90;;;;;;6261634;22;20011;-80
2023/01/15 05:06:49;;;;;;;8.13;1.88;;;5.90;99.90;;;;;;6260366;22;20070;-78
2023/01/15 05:09:15;;;;;;;12.98;2.30;;;6.40;99.90;;;;;;6235185;22;20019;-79
2023/01/15 05:11:41;;;;;;;10.43;2.13;;;5.90;99.90;;;;;;6259799;22;20014;-79
2023/01/15 05:14:16;;;;;;;16.42;2.33;;;5.90;99.90;;;;;;6235395;22;20003;-79
2023/01/15 05:16:44;;;;;;;9.43;2.55;;;5.90;99.90;;;;;;6258022;22;20026;-77
2023/01/15 05:19:19;;;;;;;12.65;2.05;;;5.90;99.90;;;;;;6259401;22;20071;-79
2023/01/15 05:21:45;;;;;;;17.25;3.20;;;5.90;99.90;;;;;;6233657;22;20094;-76
2023/01/15 05:24:16;;;;;;;16.90;2.22;;;5.90;99.90;;;;;;6234620;22;20269;-78
2023/01/15 05:26:45;;;;;;;8.15;2.60;;;5.90;99.90;;;;;;6256026;22;20014;-78
2023/01/15 05:29:14;;;;;;;7.93;1.67;;;5.90;99.90;;;;;;6259783;22;20018;-77
2023/01/15 05:31:43;;;;;;;14.95;2.33;;;5.90;99.90;;;;;;6282802;22;20017;-77
2023/01/15 05:34:09;;;;;;;8.10;1.88;;;5.80;99.90;;;;;;6259929;22;20240;-77
2023/01/15 05:36:36;;;;;;;9.73;1.85;;;5.90;99.90;;;;;;6283848;22;20062;-77
2023/01/15 05:39:05;;;;;;;9.90;2.28;;;5.80;99.90;;;;;;6259492;22;20078;-77
2023/01/15 05:41:49;;;;;;;12.18;2.67;;;5.80;99.90;;;;;;6258711;22;20065;-77
2023/01/15 05:44:24;;;;;;;10.18;1.85;;;5.70;99.90;;;;;;6259773;22;20019;-77
2023/01/15 05:46:52;;;;;;;11.38;2.58;;;5.70;99.90;;;;;;6284789;22;20196;-77
2023/01/15 05:49:22;;;;;;;9.80;1.77;;;5.70;99.90;;;;;;6285161;22;20199;-77
2023/01/15 05:51:49;;;;;;;10.48;1.95;;;5.70;99.90;;;;;;6283557;22;20015;-77
2023/01/15 05:54:20;;;;;;;15.95;2.00;;;5.80;99.90;;;;;;6289351;22;20026;-77
2023/01/15 05:56:47;;;;;;;10.98;2.00;;;5.80;99.90;;;;;;6288951;22;20038;-78
2023/01/15 05:59:21;;;;;;;6.65;2.10;;;5.80;99.90;;;;;;6290823;22;20010;-80
2023/01/15 06:01:50;;;;;;;7.85;1.67;;;5.80;99.90;;;;;;6292227;22;20010;-79
2023/01/15 06:04:20;;;;;;;8.30;2.22;;;5.80;99.90;;;;;;6315656;22;20010;-79
2023/01/15 06:06:50;;;;;;;18.10;2.35;;;5.70;99.90;;;;;;6265195;22;20069;-78
2023/01/15 06:09:21;;;;;;;6.32;1.73;;;5.70;99.90;;;;;;6290412;22;20022;-79
2023/01/15 06:11:50;;;;;;;13.30;2.05;;;5.30;99.90;;;;;;6266238;22;20017;-79
2023/01/15 06:14:19;;;;;;;13.93;2.33;;;5.70;99.90;;;;;;6315498;22;20022;-79
2023/01/15 06:16:45;;;;;;;9.68;2.05;;;5.80;99.90;;;;;;6264060;22;20017;-78
2023/01/15 06:19:15;;;;;;;7.95;1.67;;;5.60;99.90;;;;;;6289838;22;20018;-77
2023/01/15 06:21:43;;;;;;;8.43;2.15;;;5.80;99.90;;;;;;6237154;22;20074;-77
2023/01/15 06:24:09;;;;;;;8.02;1.38;;;5.60;99.90;;;;;;6312182;22;20168;-78
2023/01/15 06:26:38;;;;;;;6.55;1.55;;;5.60;99.90;;;;;;6285559;22;20174;-77
2023/01/15 06:29:03;;;;;;;9.15;2.13;;;5.70;99.90;;;;;;6286165;22;20015;-79
2023/01/15 06:31:29;;;;;;;10.65;1.50;;;5.60;99.90;;;;;;6286974;22;20021;-79
2023/01/15 06:34:13;;;;;;;7.68;1.52;;;5.60;99.90;;;;;;6262029;22;20006;-80
2023/01/15 06:36:39;;;;;;;7.25;1.80;;;5.60;99.90;;;;;;6286428;22;20026;-79
2023/01/15 06:39:04;;;;;;;4.85;1.20;;;5.60;99.90;;;;;;6261050;22;20041;-79
2023/01/15 06:47:20;;;;;;;10.07;2.03;;;5.40;99.90;;;;;;6315096;22;20019;-80
2023/01/15 06:49:56;;;;;;;7.63;1.85;;;5.40;99.90;;;;;;6316622;22;20018;-79
2023/01/15 06:52:28;;;;;;;8.90;1.85;;;5.30;99.90;;;;;;6260668;22;20049;-80
2023/01/15 06:54:54;;;;;;;7.72;1.90;;;5.40;99.90;;;;;;6258329;22;20273;-81
2023/01/15 07:00:35;;;;;;;7.07;1.85;;;5.40;99.90;;;;;;6284414;22;20015;-80
2023/01/15 07:03:04;;;;;;;10.93;1.90;;;5.40;99.90;;;;;;6232555;22;20019;-79
2023/01/15 07:05:34;;;;;;;8.13;1.52;;;5.80;99.90;;;;;;6259150;22;20019;-79
2023/01/15 07:07:59;;;;;;;7.25;1.58;;;5.50;99.90;;;;;;6233881;22;20011;-77
2023/01/15 07:10:25;;;;;;;13.07;2.50;;;5.50;99.90;;;;;;6233929;22;20015;-77
2023/01/15 07:12:54;;;;;;;4.63;1.60;;;5.50;99.90;;;;;;6257967;22;20042;-77
2023/01/15 07:15:20;;;;;;;9.75;2.00;;;5.30;99.90;;;;;;6234847;22;20288;-77
2023/01/15 07:17:46;;;;;;;14.30;4.20;;;5.40;99.90;;;;;;6232676;22;20049;-77
2023/01/15 07:20:15;;;;;;;8.85;1.75;;;5.30;99.90;;;;;;6259177;22;20006;-76
2023/01/15 07:22:40;;;;;;;12.43;1.70;;;4.40;99.90;;;;;;6258445;22;20061;-76
2023/01/15 07:25:09;;;;;;;6.75;1.98;;;5.40;99.90;;;;;;6257378;22;20047;-78
2023/01/15 07:27:35;;;;;;;8.98;1.80;;;6.60;99.90;;;;;;6283138;22;20011;-77
2023/01/15 07:30:04;;;;;;;13.93;1.75;;;5.40;99.90;;;;;;6232091;22;20062;-78
2023/01/15 07:32:30;;;;;;;11.90;1.70;;;5.50;99.90;;;;;;6259035;22;20275;-79
2023/01/15 07:34:55;;;;;;;7.63;1.90;;;5.40;99.90;;;;;;6283389;22;20033;-79
2023/01/15 07:37:21;;;;;;;12.70;1.80;;;5.40;99.90;;;;;;6284657;22;20018;-78
2023/01/15 07:39:50;;;;;;;6.43;1.70;;;5.40;99.90;;;;;;6235190;22;20063;-81
2023/01/15 07:50:28;;;;;;;7.28;2.10;;;5.50;99.90;;;;;;6263963;22;20023;-79
2023/01/15 07:52:59;;;;;;;4.75;1.35;;;5.50;99.90;;;;;;6234238;22;20019;-78
2023/01/15 07:55:25;;;;;;;5.72;1.30;;;5.50;99.90;;;;;;6259895;22;20058;-78
2023/01/15 07:57:52;;;;;;;3.75;1.08;;;5.50;99.90;;;;;;6257731;22;20197;-79
2023/01/15 08:00:32;;;;;;;11.50;1.42;;;5.50;99.90;;;;;;6285201;22;20229;-78
2023/01/15 08:03:13;;;;;;;6.85;1.60;;;5.40;99.90;;;;;;6255904;22;20019;-77
2023/01/15 08:05:38;;;;;;;10.13;1.80;;;5.30;99.90;;;;;;6234522;22;20022;-76
2023/01/15 08:08:04;;;;;;;4.25;1.15;;;5.70;99.90;;;;;;6233923;22;20511;-77
2023/01/15 08:10:30;;;;;;;9.73;2.05;;;5.40;99.90;;;;;;6209029;22;20249;-77
2023/01/15 08:15:42;;;;;;;7.10;1.17;;;5.40;99.90;;;;;;6241160;22;20012;-72
2023/01/15 08:18:08;;;;;;;9.88;2.35;;;5.50;99.90;;;;;;6234359;22;20075;-79
2023/01/15 08:20:35;;;;;;;5.22;1.30;;;5.50;99.90;;;;;;6233557;22;20319;-77
2023/01/15 08:23:04;;;;;;;8.07;2.08;;;5.50;99.90;;;;;;6283426;22;20199;-77
2023/01/15 08:29:04;;;;;;;8.57;2.00;;;5.20;99.90;;;;;;6156004;23;20068;-78
2023/01/15 08:31:33;;;;;;;18.33;2.30;;;5.70;99.90;;;;;;6257022;22;20023;-78
2023/01/15 08:34:02;;;;;;;9.65;2.10;;;4.30;99.90;;;;;;6258305;22;20060;-78
2023/01/15 08:36:28;;;;;;;12.55;2.10;;;5.80;99.90;;;;;;6234592;22;20308;-78
2023/01/15 08:38:59;;;;;;;5.43;1.45;;;5.80;99.90;;;;;;6259274;22;20011;-77
2023/01/15 08:41:25;;;;;;;9.40;2.60;;;5.70;99.90;;;;;;6234261;22;20155;-77
2023/01/15 08:43:51;;;;;;;6.00;1.80;;;5.70;99.90;;;;;;6259020;22;20204;-78
2023/01/15 08:46:19;;;;;;;9.40;1.55;;;5.60;99.90;;;;;;6259369;22;20007;-77
2023/01/15 08:48:55;;;;;;;6.03;1.75;;;5.60;99.90;;;;;;6234049;22;20071;-77
2023/01/15 08:51:20;;;;;;;7.75;1.83;;;5.50;99.90;;;;;;6234611;22;20042;-77
2023/01/15 08:53:48;;;;;;;7.55;1.52;;;5.50;99.90;;;;;;6258647;22;20236;-75
2023/01/15 08:56:17;;;;;;;5.25;1.65;;;6.10;99.90;;;;;;6284361;22;20007;-78
2023/01/15 08:58:47;;;;;;;5.68;1.80;;;5.50;99.90;;;;;;6258895;22;20015;-77
2023/01/15 09:01:17;;;;;;;8.98;1.30;;;4.90;99.90;;;;;;6284111;22;20018;-77
2023/01/15 09:03:51;;;;;;;9.90;1.30;;;5.60;99.90;;;;;;6261667;22;20061;-77
2023/01/15 09:06:16;;;;;;;7.43;1.27;;;6.00;99.90;;;;;;6283481;22;20011;-78
2023/01/15 09:08:42;;;;;;;5.35;1.60;;;5.50;99.90;;;;;;6259824;22;20033;-79
2023/01/15 09:11:08;;;;;;;4.75;1.30;;;5.30;99.90;;;;;;6259271;22;20022;-77
2023/01/15 09:13:36;;;;;;;9.50;1.77;;;5.10;99.90;;;;;;6232344;22;20015;-77
2023/01/15 09:16:05;;;;;;;5.55;2.30;;;5.10;99.90;;;;;;6284417;22;20217;-77
2023/01/15 09:18:31;;;;;;;8.23;1.60;;;5.30;99.90;;;;;;6260177;22;20011;-76
2023/01/15 09:20:58;;;;;;;11.35;2.78;;;5.20;99.90;;;;;;6258528;22;20018;-76
2023/01/15 09:23:24;;;;;;;9.68;1.63;;;5.20;99.90;;;;;;6284997;22;20046;-76
2023/01/15 09:26:06;;;;;;;7.75;1.40;;;5.30;99.90;;;;;;6232981;22;20006;-76
2023/01/15 09:28:33;;;;;;;11.38;2.03;;;5.30;99.90;;;;;;6285832;22;20018;-76
2023/01/15 09:31:14;;;;;;;6.65;1.40;;;5.40;99.90;;;;;;6232749;22;20074;-76
2023/01/15 09:33:40;;;;;;;10.90;2.22;;;5.20;99.90;;;;;;6234585;22;20067;-76
2023/01/15 09:36:15;;;;;;;9.30;2.20;;;5.40;99.90;;;;;;6258476;22;20011;-77
2023/01/15 09:38:40;;;;;;;;;;;5.50;99.90;;;;;;6286291;22;20053;-73
2023/01/15 09:44:30;;;;;;;7.93;2.03;;;5.60;99.90;;;;;;6262672;22;20019;-77
2023/01/15 09:47:23;;;;;;;9.10;2.00;;;5.70;99.90;;;;;;6282723;22;20040;-77
2023/01/15 09:50:08;;;;;;;6.03;1.70;;;6.20;99.90;;;;;;6283840;22;20344;-76
2023/01/15 09:52:49;;;;;;;9.25;1.73;;;6.40;99.90;;;;;;6293122;22;20070;-76
2023/01/15 09:55:25;;;;;;;13.27;2.78;;;6.60;99.90;;;;;;6316910;22;20034;-76
2023/01/15 09:57:54;;;;;;;8.57;2.00;;;6.70;99.90;;;;;;6289494;22;20213;-77
2023/01/15 10:00:23;;;;;;;9.35;1.70;;;6.50;99.90;;;;;;6291454;22;20052;-76
2023/01/15 10:03:04;;;;;;;8.55;1.58;;;7.00;99.90;;;;;;6287642;22;20071;-75
2023/01/15 10:05:32;;;;;;;7.53;1.70;;;7.10;99.90;;;;;;6290868;22;20011;-77
2023/01/15 10:08:18;;;;;;;9.85;2.17;;;7.00;99.90;;;;;;6315696;22;20037;-76
2023/01/15 10:10:47;;;;;;;10.77;2.33;;;7.20;99.90;;;;;;6315663;22;20073;-76
2023/01/15 10:13:24;;;;;;;7.90;1.85;;;7.30;99.90;;;;;;6314515;22;20034;-75
2023/01/15 10:15:50;;;;;;;5.85;1.73;;;7.00;99.90;;;;;;6315551;22;20045;-76
2023/01/15 10:18:19;;;;;;;5.40;1.55;;;7.20;99.90;;;;;;6290249;22;20052;-75
2023/01/15 10:21:13;;;;;;;11.63;1.70;;;7.30;99.90;;;;;;6291804;22;20195;-75
2023/01/15 10:23:39;;;;;;;12.50;2.17;;;7.60;99.90;;;;;;6289322;22;20018;-75
2023/01/15 10:26:23;;;;;;;8.60;1.73;;;7.50;99.90;;;;;;6289652;22;20213;-75
2023/01/15 10:29:03;;;;;;;9.18;1.77;;;7.50;99.90;;;;;;6315619;22;20052;-77
2023/01/15 10:31:37;;;;;;;8.55;2.08;;;7.30;99.90;;;;;;6291239;22;20007;-77
2023/01/15 10:34:12;;;;;;;6.90;2.10;;;7.20;99.90;;;;;;6289201;22;20007;-79
2023/01/15 10:36:53;;;;;;;5.57;1.42;;;7.60;99.90;;;;;;6289895;22;20011;-76
2023/01/15 10:39:39;;;;;;;6.68;1.25;;;7.90;99.90;;;;;;6316255;22;20065;-77
2023/01/15 10:42:43;;;;;;;9.05;1.40;;;8.20;99.90;;;;;;6315746;22;20017;-78
2023/01/15 10:45:20;;;;;;;10.88;1.90;;;8.40;99.90;;;;;;6309729;22;20011;-77
2023/01/15 10:47:50;;;;;;;8.18;1.60;;;8.00;99.90;;;;;;6314570;22;20024;-75
2023/01/15 10:50:21;;;;;;;6.13;1.60;;;8.10;99.90;;;;;;6313033;22;20046;-76
2023/01/15 10:53:19;;;;;;;9.60;2.28;;;7.70;99.90;;;;;;6283618;22;20262;-76
2023/01/15 10:56:01;;;;;;;8.65;2.17;;;7.50;99.90;;;;;;6283599;22;20026;-76
2023/01/15 10:58:42;;;;;;;7.78;2.08;;;7.40;99.90;;;;;;6309374;22;20011;-77
2023/01/15 11:01:14;;;;;;;8.32;2.22;;;7.60;99.90;;;;;;6283153;22;20022;-76
2023/01/15 11:03:45;;;;;;;9.27;1.55;;;7.80;99.90;;;;;;6309540;22;20057;-78
2023/01/15 11:06:16;;;;;;;7.72;1.48;;;7.60;99.90;;;;;;6306484;22;20015;-77
2023/01/15 11:08:49;;;;;;;6.82;1.80;;;7.70;99.90;;;;;;6284051;22;20034;-78
2023/01/15 11:19:35;;;;;;;8.10;1.40;;;8.30;99.90;;;;;;6309074;22;20007;-77
2023/01/15 11:20:30;;;;;;;7.72;1.17;;;9.20;99.90;;;;;;6307152;22;20023;-77
2023/01/15 11:23:19;;;;;;;10.95;2.22;;;9.20;99.90;;;;;;6309889;22;20355;-77
2023/01/15 11:25:58;;;;;;;9.07;1.90;;;9.20;99.90;;;;;;6306834;22;20011;-77
2023/01/15 11:28:41;;;;;;;8.65;1.88;;;9.20;99.90;;;;;;6281596;22;20011;-75
2023/01/15 11:32:24;;;;;;;7.10;1.42;;;8.70;99.90;;;;;;6280814;22;20217;-80
2023/01/15 11:34:58;;;;;;;10.05;2.30;;;8.70;99.90;;;;;;6307000;22;20017;-76
2023/01/15 11:37:27;;;;;;;13.88;1.88;;;8.00;99.90;;;;;;6282360;22;20011;-77
2023/01/15 11:40:06;;;;;;;7.97;1.90;;;9.00;99.90;;;;;;6256115;22;20369;-77
2023/01/15 11:51:08;;;;;;;10.35;2.08;;;7.10;99.90;;;;;;6309199;22;20331;-75
2023/01/15 11:53:39;;;;;;;5.90;1.73;;;7.50;99.90;;;;;;6283494;22;20015;-77
2023/01/15 11:56:10;;;;;;;11.10;3.03;;;7.50;99.90;;;;;;6282022;22;20020;-78
2023/01/15 11:58:43;;;;;;;7.47;1.80;;;7.50;99.90;;;;;;6283321;22;20004;-79
2023/01/15 12:01:14;;;;;;;8.52;1.83;;;7.40;99.90;;;;;;6281966;22;20014;-75
2023/01/15 12:03:40;;;;;;;8.40;2.00;;;7.30;99.90;;;;;;6283456;22;20076;-76
2023/01/15 12:06:10;;;;;;;13.05;2.60;;;7.20;99.90;;;;;;6255539;22;20007;-76
2023/01/15 12:08:54;;;;;;;8.93;2.17;;;7.20;99.90;;;;;;6309209;22;20011;-79
2023/01/15 12:11:29;;;;;;;7.38;2.22;;;7.10;99.90;;;;;;6309120;22;20140;-77
2023/01/15 12:14:19;;;;;;;14.95;2.28;;;7.10;99.90;;;;;;6282938;22;20015;-77
2023/01/15 12:16:54;;;;;;;8.10;2.50;;;7.10;99.90;;;;;;6307223;22;20019;-77
2023/01/15 12:19:59;;;;;;;9.07;2.30;;;7.00;99.90;;;;;;6282514;22;20057;-76
2023/01/15 12:22:53;;;;;;;14.30;2.23;;;7.00;99.90;;;;;;6308762;22;20027;-77
2023/01/15 12:25:44;;;;;;;10.40;2.33;;;7.00;99.90;;;;;;6285014;22;20066;-77
2023/01/15 12:28:31;;;;;;;7.97;1.80;;;7.00;99.90;;;;;;6308457;22;20018;-77
2023/01/15 12:31:17;;;;;;;11.65;2.53;;;6.80;99.90;;;;;;6310268;22;20065;-77
2023/01/15 12:33:56;;;;;;;13.27;2.33;;;6.80;99.90;;;;;;6311127;22;20029;-77
2023/01/15 12:36:28;;;;;;;11.98;2.17;;;6.70;99.90;;;;;;6309998;22;20205;-78
2023/01/15 12:39:15;;;;;;;11.15;1.85;;;6.60;99.90;;;;;;6308089;22;20074;-77
2023/01/15 12:47:41;;;;;;;2.28;0.82;;;5.40;99.90;;;;;;6307324;22;20015;-77
2023/01/15 12:51:01;;;;;;;6.00;1.23;;;5.00;99.90;;;;;;6307595;22;20011;-77
2023/01/15 12:53:52;;;;;;;3.05;1.10;;;5.00;99.90;;;;;;6159513;23;20072;-77
2023/01/15 12:56:27;;;;;;;6.57;1.38;;;5.10;99.90;;;;;;6252052;22;20023;-77
2023/01/15 12:58:56;;;;;;;;;;;5.20;99.90;;;;;;6283126;22;20015;-76
2023/01/15 13:01:53;;;;;;;5.15;1.00;;;5.30;99.90;;;;;;6257097;22;20242;-76
2023/01/15 13:04:52;;;;;;;4.65;1.10;;;5.00;99.90;;;;;;6283469;22;20018;-77
2023/01/15 13:07:42;;;;;;;4.80;1.17;;;5.50;99.90;;;;;;6258901;22;20015;-77
2023/01/15 13:10:26;;;;;;;7.47;1.48;;;3.50;99.90;;;;;;6281194;22;20042;-77
2023/01/15 13:13:00;;;;;;;6.07;1.17;;;5.60;99.90;;;;;;6280828;22;20025;-76
2023/01/15 13:15:34;;;;;;;5.15;1.08;;;5.10;99.90;;;;;;6282082;22;20066;-76
2023/01/15 13:18:43;;;;;;;5.03;1.00;;;5.20;99.90;;;;;;6258774;22;20109;-76
2023/01/15 13:21:15;;;;;;;6.78;1.25;;;5.60;99.90;;;;;;6283688;22;20175;-76
2023/01/15 13:24:10;;;;;;;4.60;1.10;;;5.60;99.90;;;;;;6284728;22;20273;-78
2023/01/15 13:26:57;;;;;;;1.95;0.90;;;5.60;99.90;;;;;;6259272;22;20007;-78
2023/01/15 13:29:34;;;;;;;5.97;0.90;;;5.20;99.90;;;;;;6258804;22;20049;-78
2023/01/15 13:32:23;;;;;;;3.78;1.27;;;5.20;99.90;;;;;;6257495;22;20038;-78
2023/01/15 13:34:53;;;;;;;7.03;1.00;;;5.50;99.90;;;;;;6258584;22;20059;-78
2023/01/15 13:37:39;;;;;;;4.65;1.08;;;5.50;99.90;;;;;;6259376;22;20026;-78
2023/01/15 13:40:31;;;;;;;1.42;0.80;;;5.20;99.90;;;;;;6258329;22;20213;-78
2023/01/15 13:43:00;;;;;;;5.45;1.05;;;5.60;99.90;;;;;;6257961;22;20012;-77
2023/01/15 13:45:36;;;;;;;8.35;2.28;;;5.10;99.90;;;;;;6233132;22;20019;-78
2023/01/15 13:48:18;;;;;;;3.42;1.00;;;5.60;99.90;;;;;;6258158;22;20011;-77
2023/01/15 13:51:06;;;;;;;5.50;1.40;;;5.10;99.90;;;;;;6284201;22;20446;-77
2023/01/15 13:54:21;;;;;;;4.75;1.25;;;4.20;99.90;;;;;;6289761;22;20030;-77
2023/01/15 13:57:47;;;;;;;;;;;;;;;;;;;;;
2023/01/15 14:00:37;;;;;;;4.80;1.23;;;5.20;99.90;;;;;;6185299;23;20017;-79
2023/01/15 14:03:27;;;;;;;6.97;1.65;;;6.20;99.90;;;;;;6135066;23;20020;-77
2023/01/15 14:06:51;;;;;;;;;;;;;;;;;;;;;
2023/01/15 14:09:34;;;;;;;;;;;4.70;99.90;;;;;;6137577;23;20041;-78
2023/01/15 14:23:52;;;;;;;6.78;1.60;;;5.60;99.90;;;;;;6030489;23;20251;-77
2023/01/15 14:30:33;;;;;;;;;;;;;;;;;;;;;
2023/01/15 14:33:44;;;;;;;9.73;1.90;;;5.50;99.90;;;;;;6270499;22;20007;-77
2023/01/15 14:36:25;;;;;;;7.93;1.77;;;6.40;99.90;;;;;;6223159;22;20026;-76
2023/01/15 14:38:58;;;;;;;11.20;1.63;;;5.50;99.90;;;;;;6307656;22;20030;-76
2023/01/15 14:41:30;;;;;;;6.05;1.40;;;5.60;99.90;;;;;;6306420;22;20322;-77
2023/01/15 14:44:00;;;;;;;5.70;1.48;;;5.80;99.90;;;;;;6280935;22;20047;-77
2023/01/15 14:46:34;;;;;;;6.57;1.90;;;6.50;99.90;;;;;;6281598;22;20015;-76
2023/01/15 14:49:03;;;;;;;11.20;1.73;;;5.60;99.90;;;;;;6256602;22;20068;-76
2023/01/15 14:51:53;;;;;;;6.32;1.75;;;5.50;99.90;;;;;;6280808;22;20015;-77
2023/01/15 14:54:24;;;;;;;11.55;2.00;;;8.10;99.90;;;;;;6306619;22;20019;-77
2023/01/15 14:57:06;;;;;;;6.63;1.33;;;6.30;99.90;;;;;;6282485;22;20078;-77
2023/01/15 14:59:59;;;;;;;9.57;2.00;;;5.50;99.90;;;;;;6282298;22;20049;-77
2023/01/15 15:02:36;;;;;;;5.82;1.50;;;5.70;99.90;;;;;;6308182;22;20018;-76
2023/01/15 15:05:08;;;;;;;9.07;1.70;;;5.80;99.90;;;;;;6281173;22;20011;-76
2023/01/15 15:07:44;;;;;;;12.27;2.42;;;5.70;99.90;;;;;;6309109;22;20015;-68
2023/01/15 15:10:16;;;;;;;11.88;2.47;;;6.20;99.90;;;;;;6281629;22;20020;-77
2023/01/15 15:13:06;;;;;;;5.15;1.92;;;5.80;99.90;;;;;;6308767;22;20013;-78
2023/01/15 15:16:12;;;;;;;9.48;2.45;;;5.70;99.90;;;;;;6283304;22;20007;-77
2023/01/15 15:18:44;;;;;;;7.68;1.90;;;6.10;99.90;;;;;;6308555;22;20046;-77
2023/01/15 15:21:26;;;;;;;9.75;2.10;;;6.00;99.90;;;;;;6307050;22;20057;-74
2023/01/15 15:24:04;;;;;;;12.23;2.38;;;5.70;99.90;;;;;;6307639;22;20080;-75
2023/01/15 15:26:31;;;;;;;;;;;5.90;99.90;;;;;;6282927;22;20021;-76
2023/01/15 15:29:15;;;;;;;9.90;2.00;;;6.30;99.90;;;;;;6280767;22;19919;-76
2023/01/15 15:31:47;;;;;;;5.70;1.70;;;6.30;99.90;;;;;;6304984;22;20094;-76
2023/01/15 15:34:18;;;;;;;13.45;2.03;;;6.20;99.90;;;;;;6279498;22;20663;-77
2023/01/15 15:36:47;;;;;;;8.38;2.35;;;5.90;99.90;;;;;;6309148;22;20014;-77
2023/01/15 15:39:22;;;;;;;17.30;2.75;;;6.20;99.90;;;;;;6305873;22;20065;-77
2023/01/15 15:51:19;;;;;;;9.55;1.80;;;5.50;99.90;;;;;;6306283;22;20055;-76
2023/01/15 15:54:06;;;;;;;16.55;2.65;;;7.70;99.90;;;;;;6272134;22;20011;-77
2023/01/15 15:56:33;;;;;;;10.77;2.25;;;6.20;99.90;;;;;;6181880;22;20469;-76